Time;durP1;ratioP1;P1;durP2;ratioP2;P2;SDS_P1;SDS_P2;PMS_P1;PMS_P2;Temp;Humidity;BMP_temperature;BMP_pressure;BME280_temperature;BME280_humidity;BME280_pressure;Samples;Min_cycle;Max_cycle;Signal;HPM_P1;HPM_P2
2024/03/15 00:02:16;;;;;;;8.20;6.63;;;;;;;11.95;100.00;100622.38;5096905;28;20035;-77
2024/03/15 00:04:42;;;;;;;6.32;5.72;;;;;;;11.97;100.00;100624.00;5095525;28;20044;-76
2024/03/15 00:07:07;;;;;;;8.00;6.55;;;;;;;11.99;100.00;100635.28;5110067;28;20240;-76
2024/03/15 00:09:33;;;;;;;13.38;7.40;;;;;;;11.97;100.00;100634.50;5097848;28;20319;-76
2024/03/15 00:12:01;;;;;;;7.95;6.50;;;;;;;11.97;100.00;100629.25;5108507;28;20368;-76
2024/03/15 00:14:27;;;;;;;9.55;5.97;;;;;;;11.96;100.00;100627.53;5114830;28;20063;-76
2024/03/15 00:16:53;;;;;;;6.75;6.10;;;;;;;11.95;100.00;100625.00;5113365;28;20104;-77
2024/03/15 00:19:19;;;;;;;10.27;6.22;;;;;;;11.97;100.00;100626.63;5115112;28;20058;-76
2024/03/15 00:21:45;;;;;;;8.10;5.97;;;;;;;11.97;100.00;100629.25;5111103;28;20242;-77
2024/03/15 00:24:11;;;;;;;9.73;6.13;;;;;;;11.99;100.00;100629.16;5116802;28;20083;-76
2024/03/15 00:26:37;;;;;;;11.93;7.60;;;;;;;11.98;100.00;100622.22;5111477;28;20036;-76
2024/03/15 00:29:03;;;;;;;7.97;6.22;;;;;;;11.98;100.00;100623.06;5096338;28;20055;-76
2024/03/15 00:31:29;;;;;;;7.63;5.90;;;;;;;11.96;100.00;100618.84;5099292;28;20429;-77
2024/03/15 00:33:54;;;;;;;6.70;5.70;;;;;;;11.95;100.00;100625.88;5095621;28;20031;-78
2024/03/15 00:36:19;;;;;;;8.13;5.82;;;;;;;11.95;100.00;100625.88;5097022;28;20043;-78
2024/03/15 00:38:45;;;;;;;6.57;5.63;;;;;;;11.94;100.00;100621.53;5098904;28;20105;-78
2024/03/15 00:41:10;;;;;;;7.00;6.30;;;;;;;11.96;100.00;100624.09;5116712;28;20061;-78
2024/03/15 00:43:36;;;;;;;8.30;5.78;;;;;;;11.96;100.00;100626.72;5115991;28;20329;-78
2024/03/15 00:46:02;;;;;;;6.45;5.20;;;;;;;11.97;100.00;100631.00;5116645;28;20100;-78
2024/03/15 00:48:28;;;;;;;5.78;5.05;;;;;;;11.99;100.00;100624.78;5100896;28;20047;-78
2024/03/15 00:50:53;;;;;;;7.47;5.40;;;;;;;12.00;100.00;100615.97;5096226;28;20043;-78
2024/03/15 00:53:19;;;;;;;6.60;5.03;;;;;;;12.00;100.00;100615.13;5108475;28;20405;-78
2024/03/15 00:55:44;;;;;;;6.05;5.38;;;;;;;12.00;100.00;100618.59;5102419;28;20052;-77
2024/03/15 00:58:10;;;;;;;7.57;5.38;;;;;;;12.01;100.00;100606.34;5106093;28;20043;-77
2024/03/15 01:00:35;;;;;;;7.15;5.65;;;;;;;12.04;100.00;100607.03;5116432;28;20277;-78
2024/03/15 01:03:01;;;;;;;6.35;5.63;;;;;;;12.05;100.00;100608.72;5109088;28;20048;-78
2024/03/15 01:05:26;;;;;;;5.65;5.03;;;;;;;12.05;100.00;100613.97;5095770;28;20024;-78
2024/03/15 01:07:51;;;;;;;7.28;5.10;;;;;;;12.06;100.00;100607.81;5100724;28;20099;-78
2024/03/15 01:10:17;;;;;;;6.45;5.22;;;;;;;12.07;100.00;100606.84;5116288;28;20039;-78
2024/03/15 01:12:42;;;;;;;6.72;5.07;;;;;;;12.06;100.00;100610.41;5116468;28;20032;-78
2024/03/15 01:15:09;;;;;;;9.20;5.15;;;;;;;12.08;100.00;100611.19;5116576;28;20234;-78
2024/03/15 01:17:35;;;;;;;8.50;5.43;;;;;;;12.07;100.00;100614.72;5097282;28;20040;-77
2024/03/15 01:20:00;;;;;;;6.22;4.80;;;;;;;12.08;100.00;100611.19;5116976;28;20042;-78
2024/03/15 01:22:25;;;;;;;6.40;5.63;;;;;;;12.07;100.00;100606.84;5107374;28;20185;-78
2024/03/15 01:24:52;;;;;;;6.25;5.63;;;;;;;12.07;100.00;100616.50;5078451;28;20040;-78
2024/03/15 01:27:17;;;;;;;5.80;5.20;;;;;;;12.08;100.00;100612.97;5100671;28;20031;-78
2024/03/15 01:29:43;;;;;;;6.47;5.20;;;;;;;12.08;100.00;100602.47;5116363;28;20098;-78
2024/03/15 01:32:08;;;;;;;6.50;5.90;;;;;;;12.05;100.00;100606.09;5113353;28;20041;-78
2024/03/15 01:34:33;;;;;;;7.88;5.20;;;;;;;12.05;100.00;100610.50;5095179;28;20104;-77
2024/03/15 01:36:59;;;;;;;7.82;5.47;;;;;;;12.05;100.00;100611.34;5096236;28;20036;-78
2024/03/15 01:39:24;;;;;;;5.40;4.80;;;;;;;12.06;100.00;100605.19;5115005;28;20039;-78
2024/03/15 01:41:50;;;;;;;8.55;5.57;;;;;;;12.01;100.00;100607.19;5115252;28;20066;-78
2024/03/15 01:44:16;;;;;;;9.15;5.78;;;;;;;12.01;100.00;100612.44;5097260;28;20246;-78
2024/03/15 01:46:41;;;;;;;6.70;5.10;;;;;;;12.01;100.00;100607.19;5110798;28;20058;-78
2024/03/15 01:49:08;;;;;;;7.82;5.60;;;;;;;12.00;100.00;100600.22;5115063;28;20076;-78
2024/03/15 01:51:34;;;;;;;6.93;5.45;;;;;;;12.00;100.00;100604.63;5115358;28;20338;-78
2024/03/15 01:54:00;;;;;;;5.50;4.93;;;;;;;11.98;100.00;100607.31;5084494;28;20031;-78
2024/03/15 01:56:26;;;;;;;6.22;5.63;;;;;;;11.95;100.00;100591.75;5094751;28;20082;-78
2024/03/15 01:58:52;;;;;;;7.28;5.75;;;;;;;11.97;100.00;100597.78;5105484;28;20294;-79
2024/03/15 02:01:17;;;;;;;5.93;5.32;;;;;;;11.97;100.00;100594.28;5095020;28;20102;-78
2024/03/15 02:03:46;;;;;;;8.20;6.03;;;;;;;11.91;100.00;100592.81;5106230;28;20043;-78
2024/03/15 02:06:11;;;;;;;;;;;;;;;11.87;100.00;100596.50;5094746;28;20516;-77
2024/03/15 02:08:36;;;;;;;11.13;6.03;;;;;;;11.84;100.00;100578.25;5101413;28;20222;-78
2024/03/15 02:11:02;;;;;;;7.15;5.32;;;;;;;11.81;100.00;100592.41;5115533;28;20036;-79
2024/03/15 02:13:27;;;;;;;7.07;6.30;;;;;;;11.78;100.00;100595.16;5114619;28;20042;-79
2024/03/15 02:15:53;;;;;;;10.10;6.82;;;;;;;11.74;100.00;100592.78;5097137;28;20103;-78
2024/03/15 02:18:18;;;;;;;12.05;6.75;;;;;;;11.72;100.00;100591.06;5114090;28;20035;-79
2024/03/15 02:20:43;;;;;;;8.82;6.40;;;;;;;11.74;100.00;100592.78;5095043;28;20032;-79
2024/03/15 02:23:09;;;;;;;7.53;6.70;;;;;;;11.70;100.00;100597.34;5094739;28;20050;-79
2024/03/15 02:25:34;;;;;;;7.97;6.55;;;;;;;11.68;100.00;100593.94;5112410;28;20027;-79
2024/03/15 02:27:59;;;;;;;7.18;6.30;;;;;;;11.69;100.00;100590.38;5114699;28;20070;-79
2024/03/15 02:30:25;;;;;;;7.63;6.43;;;;;;;11.66;100.00;100591.38;5099460;28;20243;-79
2024/03/15 02:32:51;;;;;;;7.05;5.75;;;;;;;11.64;100.00;100595.00;5094905;28;20103;-79
2024/03/15 02:35:16;;;;;;;7.53;5.68;;;;;;;11.65;100.00;100592.28;5106648;28;20301;-78
2024/03/15 02:37:41;;;;;;;6.88;6.00;;;;;;;11.62;100.00;100592.44;5096611;28;20066;-78
2024/03/15 02:40:09;;;;;;;7.30;6.32;;;;;;;11.65;100.00;100588.84;5103926;28;20036;-78
2024/03/15 02:42:36;;;;;;;9.88;6.25;;;;;;;11.63;100.00;100583.66;5114230;28;20071;-78
2024/03/15 02:45:01;;;;;;;6.38;5.75;;;;;;;11.63;100.00;100590.69;5109589;28;20309;-78
2024/03/15 02:47:26;;;;;;;10.88;6.55;;;;;;;11.61;100.00;100590.75;5114808;28;20027;-79
2024/03/15 02:49:53;;;;;;;7.40;6.13;;;;;;;11.65;100.00;100591.47;5091404;28;20023;-78
2024/03/15 02:52:18;;;;;;;10.10;6.20;;;;;;;11.66;100.00;100596.63;5095839;28;20044;-78
2024/03/15 02:54:43;;;;;;;9.23;5.93;;;;;;;11.62;100.00;100589.81;5078234;28;20093;-78
2024/03/15 02:57:09;;;;;;;7.78;6.25;;;;;;;11.55;100.00;100596.31;5112693;28;20054;-78
2024/03/15 02:59:34;;;;;;;10.68;6.22;;;;;;;11.57;100.00;100591.84;5103822;28;20031;-78
2024/03/15 03:02:00;;;;;;;8.93;6.57;;;;;;;11.60;100.00;100585.59;5094969;28;20354;-78
2024/03/15 03:04:26;;;;;;;6.85;6.15;;;;;;;11.59;100.00;100594.34;5098233;28;20121;-78
2024/03/15 03:06:51;;;;;;;9.15;6.15;;;;;;;11.60;100.00;100591.66;5097111;28;20338;-78
2024/03/15 03:09:20;;;;;;;7.93;6.45;;;;;;;11.61;100.00;100593.38;5098188;28;20095;-78
2024/03/15 03:11:46;;;;;;;9.73;6.07;;;;;;;11.55;100.00;100596.31;5113978;28;20061;-78
2024/03/15 03:14:13;;;;;;;6.55;5.88;;;;;;;11.57;100.00;100593.59;5099803;28;20035;-78
2024/03/15 03:16:42;;;;;;;8.05;6.45;;;;;;;11.57;100.00;100591.84;5118128;28;20059;-78
2024/03/15 03:19:07;;;;;;;10.48;6.32;;;;;;;11.60;100.00;100598.69;5118082;28;20334;-78
2024/03/15 03:21:33;;;;;;;8.40;5.78;;;;;;;11.63;100.00;100595.94;5090303;28;20107;-77
2024/03/15 03:24:00;;;;;;;13.38;6.20;;;;;;;11.62;100.00;100587.19;5097831;28;20050;-78
2024/03/15 03:26:26;;;;;;;12.52;6.15;;;;;;;11.58;100.00;100598.75;5104272;28;20092;-77
2024/03/15 03:28:51;;;;;;;6.95;5.50;;;;;;;11.58;100.00;100601.38;5118348;28;20094;-77
2024/03/15 03:31:18;;;;;;;10.45;6.47;;;;;;;11.59;100.00;100595.22;5112945;28;20031;-78
2024/03/15 03:33:44;;;;;;;10.00;5.60;;;;;;;11.63;100.00;100598.56;5099872;28;20035;-78
2024/03/15 03:36:09;;;;;;;7.25;5.88;;;;;;;11.65;100.00;100594.91;5115314;28;20036;-77
2024/03/15 03:38:34;;;;;;;6.05;5.47;;;;;;;11.60;100.00;100589.03;5111688;28;20112;-78
2024/03/15 03:41:00;;;;;;;9.82;5.93;;;;;;;11.58;100.00;100603.16;5117335;28;20063;-77
2024/03/15 03:43:25;;;;;;;8.40;5.93;;;;;;;11.63;100.00;100601.19;5115802;28;20050;-78
2024/03/15 03:45:51;;;;;;;6.22;5.68;;;;;;;11.62;100.00;100602.94;5118095;28;20051;-78
2024/03/15 03:48:17;;;;;;;7.82;6.25;;;;;;;11.62;100.00;100597.69;5100199;28;20188;-77
2024/03/15 03:50:42;;;;;;;9.02;5.68;;;;;;;11.59;100.00;100599.59;5078993;28;20044;-78
2024/03/15 03:53:09;;;;;;;9.07;6.50;;;;;;;11.59;100.00;100600.47;5111962;28;20049;-77
2024/03/15 03:55:35;;;;;;;9.55;6.00;;;;;;;11.59;100.00;100602.22;5117209;28;20055;-78
2024/03/15 03:58:00;;;;;;;5.88;5.25;;;;;;;11.58;100.00;100590.91;5105504;28;20122;-78
2024/03/15 04:00:26;;;;;;;10.48;4.75;;;;;;;11.62;100.00;100599.47;5097704;28;20032;-78
2024/03/15 04:02:52;;;;;;;8.73;5.32;;;;;;;11.57;100.00;100597.09;5107375;28;20070;-78
2024/03/15 04:05:18;;;;;;;9.00;5.25;;;;;;;11.59;100.00;100600.47;5099024;28;20242;-78
2024/03/15 04:07:46;;;;;;;8.02;4.85;;;;;;;11.64;100.00;100598.47;5111180;28;20406;-79
2024/03/15 04:10:13;;;;;;;7.45;5.43;;;;;;;11.61;100.00;100597.78;5096893;28;20052;-78
2024/03/15 04:12:40;;;;;;;8.48;4.97;;;;;;;11.58;100.00;100601.38;5084614;28;20030;-78
2024/03/15 04:15:07;;;;;;;10.65;5.22;;;;;;;11.60;100.00;100606.56;5117828;28;20031;-78
2024/03/15 04:17:34;;;;;;;5.38;4.88;;;;;;;11.63;100.00;100603.81;5114756;28;20051;-78
2024/03/15 04:20:00;;;;;;;10.65;5.00;;;;;;;11.61;100.00;100608.28;5097056;28;20032;-78
2024/03/15 04:22:25;;;;;;;9.85;4.88;;;;;;;11.57;100.00;100606.69;5097862;28;20369;-78
2024/03/15 04:24:51;;;;;;;6.10;4.50;;;;;;;11.55;100.00;100606.81;5098107;28;20076;-78
2024/03/15 04:27:18;;;;;;;5.13;4.63;;;;;;;11.58;100.00;100603.16;5116612;28;20073;-78
2024/03/15 04:29:44;;;;;;;8.45;4.63;;;;;;;11.59;100.00;100600.47;5098348;28;20353;-78
2024/03/15 04:32:09;;;;;;;9.15;5.10;;;;;;;11.56;100.00;100605.84;5097110;28;20032;-79
2024/03/15 04:34:37;;;;;;;7.25;5.20;;;;;;;11.50;100.00;100601.75;5112309;28;20557;-78
2024/03/15 04:37:05;;;;;;;7.20;5.50;;;;;;;11.49;100.00;100607.91;5117558;28;20036;-78
2024/03/15 04:39:32;;;;;;;6.17;5.57;;;;;;;11.50;100.00;100609.63;5102799;28;20043;-78
2024/03/15 04:41:57;;;;;;;7.80;5.53;;;;;;;11.53;100.00;100611.25;5110880;28;20281;-79
2024/03/15 04:44:22;;;;;;;6.45;5.70;;;;;;;11.49;100.00;100609.69;5115521;28;20043;-79
2024/03/15 04:46:49;;;;;;;8.57;6.35;;;;;;;11.43;100.00;100613.47;5117328;28;20035;-78
2024/03/15 04:49:15;;;;;;;9.43;6.22;;;;;;;11.48;100.00;100606.25;5107335;28;20054;-78
2024/03/15 04:51:40;;;;;;;6.63;5.15;;;;;;;11.48;100.00;100605.41;5078907;28;20028;-79
2024/03/15 04:54:07;;;;;;;8.52;5.40;;;;;;;11.43;100.00;100600.34;5103987;28;20432;-78
2024/03/15 04:56:34;;;;;;;9.70;5.93;;;;;;;11.34;100.00;100606.88;5116808;28;20051;-78
2024/03/15 04:58:59;;;;;;;7.68;5.97;;;;;;;11.34;100.00;100611.28;5111303;28;20062;-78
2024/03/15 05:01:24;;;;;;;9.00;6.20;;;;;;;11.34;100.00;100606.88;5096289;28;20127;-78
2024/03/15 05:03:50;;;;;;;9.35;6.38;;;;;;;11.39;100.00;100601.44;5098783;28;20216;-78
2024/03/15 05:06:15;;;;;;;6.60;6.00;;;;;;;11.39;100.00;100606.69;5116008;28;20031;-78
2024/03/15 05:08:41;;;;;;;7.80;6.68;;;;;;;11.37;100.00;100611.16;5116238;28;20377;-79
2024/03/15 05:11:07;;;;;;;14.30;6.60;;;;;;;11.37;100.00;100603.28;5116647;28;20098;-78
2024/03/15 05:13:33;;;;;;;7.68;6.90;;;;;;;11.34;100.00;100609.50;5116364;28;20050;-78
2024/03/15 05:15:58;;;;;;;8.95;6.50;;;;;;;11.31;100.00;100616.66;5105479;28;20036;-79
2024/03/15 05:18:23;;;;;;;6.32;5.68;;;;;;;11.30;100.00;100607.13;5108611;28;20346;-79
2024/03/15 05:20:49;;;;;;;7.22;6.45;;;;;;;11.30;100.00;100615.81;5115830;28;20039;-78
2024/03/15 05:23:14;;;;;;;8.27;5.90;;;;;;;11.32;100.00;100618.38;5097503;28;20047;-79
2024/03/15 05:25:43;;;;;;;7.95;5.80;;;;;;;11.28;100.00;100612.44;5104254;28;20209;-78
2024/03/15 05:28:08;;;;;;;9.23;6.22;;;;;;;11.28;100.00;100614.22;5096593;28;20040;-79
2024/03/15 05:30:34;;;;;;;7.97;6.35;;;;;;;11.27;100.00;100612.50;5105605;28;20027;-78
2024/03/15 05:32:59;;;;;;;10.52;6.53;;;;;;;11.25;100.00;100609.09;5116324;28;20088;-79
2024/03/15 05:35:25;;;;;;;10.60;6.53;;;;;;;11.27;100.00;100604.63;5115192;28;20097;-79
2024/03/15 05:37:51;;;;;;;8.27;6.70;;;;;;;11.24;100.00;100610.88;5116505;28;20284;-78
2024/03/15 05:40:17;;;;;;;10.18;6.47;;;;;;;11.23;100.00;100605.72;5096483;28;20376;-78
2024/03/15 05:42:43;;;;;;;11.57;6.10;;;;;;;11.21;100.00;100599.69;5115973;28;20229;-79
2024/03/15 05:45:08;;;;;;;12.43;5.95;;;;;;;11.21;100.00;100620.66;5113624;28;20035;-78
2024/03/15 05:47:33;;;;;;;11.40;5.40;;;;;;;11.26;100.00;100610.78;5095440;28;20054;-78
2024/03/15 05:50:00;;;;;;;13.10;5.45;;;;;;;11.24;100.00;100617.88;5095450;28;20034;-78
2024/03/15 05:52:25;;;;;;;12.40;4.63;;;;;;;11.27;100.00;100604.63;5114775;28;20284;-78
2024/03/15 05:54:50;;;;;;;11.77;3.97;;;;;;;11.24;100.00;100610.88;5115942;28;20027;-79
2024/03/15 05:57:16;;;;;;;11.30;4.68;;;;;;;11.24;100.00;100610.88;5115072;28;20047;-79
2024/03/15 05:59:41;;;;;;;12.48;4.53;;;;;;;11.23;100.00;100618.81;5115886;28;20081;-78
2024/03/15 06:02:06;;;;;;;8.35;4.35;;;;;;;11.24;100.00;100604.78;5102689;28;20134;-79
2024/03/15 06:04:32;;;;;;;8.45;4.28;;;;;;;11.24;100.00;100610.00;5095065;28;20035;-78
2024/03/15 06:06:59;;;;;;;14.35;4.55;;;;;;;11.23;100.00;100616.19;5095519;28;20377;-78
2024/03/15 06:09:24;;;;;;;14.45;4.80;;;;;;;11.23;100.00;100614.41;5094684;28;20277;-79
2024/03/15 06:11:51;;;;;;;11.88;4.72;;;;;;;11.20;100.00;100617.16;5108682;28;20050;-78
2024/03/15 06:14:17;;;;;;;10.15;4.60;;;;;;;11.18;100.00;100615.56;5115037;28;20219;-78
2024/03/15 06:16:43;;;;;;;13.75;5.05;;;;;;;11.21;100.00;100623.28;5093116;28;20028;-78
2024/03/15 06:19:09;;;;;;;13.35;5.45;;;;;;;11.19;100.00;100618.13;5115153;28;20058;-78
2024/03/15 06:21:34;;;;;;;12.55;4.80;;;;;;;11.23;100.00;100618.81;5114376;28;20091;-78
2024/03/15 06:24:00;;;;;;;9.13;4.53;;;;;;;11.22;100.00;100617.09;5114868;28;20035;-78
2024/03/15 06:26:26;;;;;;;11.57;4.40;;;;;;;11.24;100.00;100617.88;5111848;28;20427;-78
2024/03/15 06:28:55;;;;;;;13.45;4.63;;;;;;;11.23;100.00;100622.28;5107494;28;20292;-78
2024/03/15 06:31:21;;;;;;;;;;;;;;;11.24;100.00;100630.97;5095650;28;20302;-78
2024/03/15 06:33:49;;;;;;;13.85;4.40;;;;;;;11.23;100.00;100619.66;5115350;28;19930;-78
2024/03/15 06:36:19;;;;;;;11.27;3.95;;;;;;;11.23;100.00;100618.81;5114790;28;20035;-78
2024/03/15 06:41:29;;;;;;;12.30;4.43;;;;;;;11.21;100.00;100634.63;5102470;28;20039;-78
2024/03/15 06:44:19;;;;;;;9.60;4.03;;;;;;;11.25;100.00;100630.91;5107772;28;20235;-78
2024/03/15 06:49:48;;;;;;;17.48;3.88;;;;;;;11.23;100.00;100638.00;5094722;28;20426;-78
2024/03/15 06:55:00;;;;;;;14.55;3.60;;;;;;;11.27;100.00;100639.56;5114763;28;20418;-78
2024/03/15 06:57:27;;;;;;;10.40;2.53;;;;;;;11.29;100.00;100640.31;5112781;28;20269;-78
2024/03/15 06:59:53;;;;;;;8.75;2.53;;;;;;;11.34;100.00;100648.00;5114406;28;20235;-78
2024/03/15 07:02:19;;;;;;;10.23;2.78;;;;;;;11.32;100.00;100631.50;5107703;28;20035;-78
2024/03/15 07:04:45;;;;;;;10.57;2.92;;;;;;;11.33;100.00;100641.03;5108647;28;20322;-77
2024/03/15 07:07:13;;;;;;;11.15;3.13;;;;;;;11.38;100.00;100646.91;5114735;28;20254;-78
2024/03/15 07:09:39;;;;;;;14.35;3.30;;;;;;;11.43;100.00;100633.59;5114017;28;20200;-79
2024/03/15 07:12:05;;;;;;;11.95;2.53;;;;;;;11.40;100.00;100655.56;5113545;28;20096;-78
2024/03/15 07:14:30;;;;;;;11.45;2.20;;;;;;;11.39;100.00;100676.59;5096873;28;20153;-78
2024/03/15 07:16:56;;;;;;;10.95;2.00;;;;;;;11.40;100.00;100665.22;5093780;28;20032;-78
2024/03/15 07:19:21;;;;;;;16.30;2.90;;;;;;;11.36;100.00;100656.63;5113319;28;20048;-78
2024/03/15 07:21:47;;;;;;;17.80;2.70;;;;;;;11.35;100.00;100660.19;5084640;28;20216;-78
2024/03/15 07:24:13;;;;;;;14.35;2.40;;;;;;;11.34;100.00;100661.94;5091343;28;20038;-78
2024/03/15 07:26:39;;;;;;;10.05;2.30;;;;;;;11.39;100.00;100668.75;5114046;28;20031;-78
2024/03/15 07:29:05;;;;;;;9.25;2.53;;;;;;;11.41;100.00;100664.31;5098038;28;20197;-78
2024/03/15 07:31:30;;;;;;;10.40;2.47;;;;;;;11.38;100.00;100660.03;5092906;28;20313;-77
2024/03/15 07:33:59;;;;;;;10.35;2.92;;;;;;;11.46;100.00;100665.78;5093120;28;20043;-77
2024/03/15 07:36:24;;;;;;;16.33;2.88;;;;;;;11.45;100.00;100660.59;5107460;28;20039;-78
2024/03/15 07:38:53;;;;;;;9.88;2.72;;;;;;;11.46;100.00;100657.91;5101959;28;20279;-77
2024/03/15 07:41:21;;;;;;;15.38;3.95;;;;;;;11.44;100.00;100653.66;5101620;28;20086;-78
2024/03/15 07:43:47;;;;;;;10.18;3.90;;;;;;;11.43;100.00;100658.03;5103733;28;20468;-77
2024/03/15 07:46:12;;;;;;;11.60;3.20;;;;;;;11.40;100.00;100657.34;5108338;28;20222;-78
2024/03/15 07:48:37;;;;;;;11.88;2.80;;;;;;;11.40;100.00;100660.81;5113914;28;20039;-78
2024/03/15 07:51:04;;;;;;;9.38;3.08;;;;;;;11.45;100.00;100663.22;5113299;28;20059;-75
2024/03/15 07:53:29;;;;;;;16.15;2.45;;;;;;;11.46;100.00;100664.91;5092952;28;20053;-78
2024/03/15 07:55:54;;;;;;;7.43;2.45;;;;;;;11.49;100.00;100668.22;5104628;28;20083;-78
2024/03/15 07:58:20;;;;;;;11.23;3.25;;;;;;;11.46;100.00;100664.91;5104760;28;20031;-78
2024/03/15 08:00:45;;;;;;;9.90;3.15;;;;;;;11.45;100.00;100679.81;5085817;28;20042;-78
2024/03/15 08:03:11;;;;;;;5.75;2.70;;;;;;;11.51;100.00;100669.03;5107858;28;20023;-78
2024/03/15 08:05:38;;;;;;;8.25;3.97;;;;;;;11.52;100.00;100656.78;5105147;28;20039;-78
2024/03/15 08:08:05;;;;;;;11.00;3.30;;;;;;;11.53;100.00;100663.69;5099504;28;20043;-78
2024/03/15 08:10:33;;;;;;;4.78;2.60;;;;;;;11.57;100.00;100662.66;5103442;28;20027;-78
2024/03/15 08:13:00;;;;;;;8.60;4.38;;;;;;;11.61;100.00;100660.72;5111327;28;20034;-77
2024/03/15 08:15:32;;;;;;;9.70;3.17;;;;;;;11.58;100.00;100647.75;5111358;28;20031;-78
2024/03/15 08:18:00;;;;;;;8.88;3.58;;;;;;;11.60;100.00;100657.25;5112155;28;20102;-78
2024/03/15 08:20:26;;;;;;;11.77;3.38;;;;;;;11.62;100.00;100651.94;5109106;28;20043;-77
2024/03/15 08:22:55;;;;;;;7.47;3.20;;;;;;;11.64;100.00;100660.56;5112539;28;20099;-78
2024/03/15 08:25:20;;;;;;;;;;;;;;;11.63;100.00;100657.09;5111440;28;20043;-77
2024/03/15 08:27:46;;;;;;;21.03;4.33;;;;;;;11.65;100.00;100654.41;5112004;28;20088;-78
2024/03/15 08:30:14;;;;;;;10.55;3.25;;;;;;;11.68;100.00;100662.97;5111122;28;20273;-78
2024/03/15 08:32:39;;;;;;;12.02;3.83;;;;;;;11.69;100.00;100669.91;5111964;28;20035;-78
2024/03/15 08:35:07;;;;;;;7.90;3.10;;;;;;;11.72;100.00;100664.53;5112258;28;20372;-77
2024/03/15 08:37:33;;;;;;;15.32;3.60;;;;;;;11.74;100.00;100667.06;5111028;28;20429;-77
2024/03/15 08:39:59;;;;;;;5.32;2.90;;;;;;;11.80;100.00;100661.53;5111577;28;20031;-78
2024/03/15 08:42:24;;;;;;;9.85;3.05;;;;;;;11.85;100.00;100672.66;5111128;28;20035;-78
2024/03/15 08:44:50;;;;;;;11.32;4.00;;;;;;;11.90;100.00;100682.97;5094086;28;20030;-77
2024/03/15 08:47:18;;;;;;;18.10;4.53;;;;;;;11.93;100.00;100669.69;5109774;28;20036;-78
2024/03/15 08:49:45;;;;;;;14.55;3.20;;;;;;;11.94;100.00;100683.66;5110383;28;20027;-78
2024/03/15 08:52:15;;;;;;;11.05;3.30;;;;;;;11.93;100.00;100685.41;5110960;28;20036;-78
2024/03/15 08:54:41;;;;;;;11.25;4.43;;;;;;;11.95;100.00;100686.22;5111056;28;20149;-78
2024/03/15 08:57:06;;;;;;;13.00;3.58;;;;;;;11.96;100.00;100697.56;5110328;28;20097;-77
2024/03/15 08:59:31;;;;;;;10.60;3.60;;;;;;;11.96;100.00;100693.16;5110197;28;20103;-78
2024/03/15 09:01:57;;;;;;;13.40;4.07;;;;;;;11.97;100.00;100701.88;5110518;28;20050;-77
2024/03/15 09:04:24;;;;;;;13.52;3.75;;;;;;;11.95;100.00;100701.97;5111062;28;20031;-77
2024/03/15 09:06:51;;;;;;;11.68;3.50;;;;;;;11.96;100.00;100698.41;5111538;28;20031;-77
2024/03/15 09:09:20;;;;;;;17.65;4.53;;;;;;;11.99;100.00;100711.38;5109902;28;20039;-77
2024/03/15 09:11:46;;;;;;;10.73;4.28;;;;;;;11.97;100.00;100687.00;5091523;28;20055;-78
2024/03/15 09:14:17;;;;;;;16.00;4.07;;;;;;;11.97;100.00;100694.88;5109515;28;20054;-78
2024/03/15 09:16:43;;;;;;;13.98;4.18;;;;;;;11.98;100.00;100701.81;5109269;28;20055;-78
2024/03/15 09:19:09;;;;;;;13.32;4.82;;;;;;;11.96;100.00;100695.78;5110245;28;20051;-78
2024/03/15 09:21:35;;;;;;;20.60;4.70;;;;;;;11.99;100.00;100690.41;5110146;28;20436;-77
2024/03/15 09:24:00;;;;;;;9.88;4.00;;;;;;;11.97;100.00;100680.88;5106919;28;20778;-77
2024/03/15 09:26:27;;;;;;;13.57;4.47;;;;;;;11.97;100.00;100691.38;5110095;28;20330;-78
2024/03/15 09:28:57;;;;;;;12.15;3.85;;;;;;;11.99;100.00;100689.53;5110522;28;20039;-77
2024/03/15 09:31:24;;;;;;;12.13;3.72;;;;;;;12.02;100.00;100690.22;5109780;28;20102;-77
2024/03/15 09:33:54;;;;;;;11.18;3.30;;;;;;;12.06;100.00;100673.41;5110939;28;20106;-78
2024/03/15 09:36:21;;;;;;;15.35;3.30;;;;;;;12.07;100.00;100682.97;5110274;28;20334;-78
2024/03/15 09:38:46;;;;;;;18.17;3.13;;;;;;;12.08;100.00;100692.56;5110289;28;20355;-77
2024/03/15 09:41:16;;;;;;;11.80;3.20;;;;;;;12.06;100.00;100702.28;5109165;28;20039;-77
2024/03/15 09:43:41;;;;;;;10.77;2.33;;;;;;;12.07;100.00;100685.59;5110609;28;20402;-77
2024/03/15 09:46:16;;;;;;;10.27;2.17;;;;;;;12.07;100.00;100697.88;5109788;28;20027;-77
2024/03/15 09:48:43;;;;;;;6.15;1.98;;;;;;;12.08;100.00;100686.47;5110977;28;20028;-77
2024/03/15 09:51:13;;;;;;;7.35;2.50;;;;;;;12.07;100.00;100692.63;5110139;28;20027;-78
2024/03/15 09:53:39;;;;;;;20.38;3.67;;;;;;;12.06;100.00;100701.41;5110602;28;20050;-77
2024/03/15 09:56:08;;;;;;;11.63;3.15;;;;;;;12.05;100.00;100694.50;5109221;28;20502;-77
2024/03/15 09:58:33;;;;;;;6.82;2.30;;;;;;;12.10;100.00;100690.72;5108470;28;20038;-78
2024/03/15 10:00:59;;;;;;;13.80;2.35;;;;;;;12.13;100.00;100692.31;5108824;28;20028;-77
2024/03/15 10:03:25;;;;;;;13.40;2.58;;;;;;;12.18;100.00;100681.59;5109419;28;20126;-78
2024/03/15 10:05:50;;;;;;;12.13;2.78;;;;;;;12.17;100.00;100687.78;5109985;28;20036;-77
2024/03/15 10:08:15;;;;;;;11.55;2.17;;;;;;;12.18;100.00;100689.47;5108534;28;20032;-78
2024/03/15 10:10:41;;;;;;;9.10;2.45;;;;;;;12.22;100.00;100698.91;5109582;28;20062;-78
2024/03/15 10:13:07;;;;;;;19.08;3.67;;;;;;;12.24;100.00;100707.53;5109232;28;20062;-77
2024/03/15 10:15:32;;;;;;;21.80;3.08;;;;;;;12.25;100.00;100699.59;5109613;28;20043;-77
2024/03/15 10:17:58;;;;;;;11.52;2.65;;;;;;;12.30;100.00;100707.25;5109627;28;20094;-78
2024/03/15 10:20:25;;;;;;;11.57;2.55;;;;;;;12.32;100.00;100694.91;5109932;28;20090;-78
2024/03/15 10:22:52;;;;;;;12.25;2.90;;;;;;;12.34;100.00;100690.41;5108242;28;20207;-77
2024/03/15 10:25:31;;;;;;;25.80;3.08;;;;;;;12.36;100.00;100693.81;5089661;28;20037;-78
2024/03/15 10:27:56;;;;;;;11.15;2.10;;;;;;;12.38;100.00;100698.97;5108279;28;20482;-77
2024/03/15 10:30:24;;;;;;;20.65;3.22;;;;;;;12.38;100.00;100691.09;5109266;28;20077;-77
2024/03/15 10:32:52;;;;;;;13.70;2.28;;;;;;;12.40;100.00;100692.72;5109095;28;20039;-77
2024/03/15 10:35:21;;;;;;;6.95;2.22;;;;;;;12.41;100.00;100701.47;5108382;28;20358;-77
2024/03/15 10:37:50;;;;;;;;;;;;;;;12.42;100.00;100697.91;5109701;28;20031;-77
2024/03/15 10:40:17;;;;;;;8.30;1.90;;;;;;;12.41;100.00;100696.22;5108189;28;20793;-77
2024/03/15 10:42:44;;;;;;;9.85;2.13;;;;;;;12.38;100.00;100698.97;5108555;28;20035;-77
2024/03/15 10:45:12;;;;;;;10.07;2.45;;;;;;;12.35;100.00;100689.50;5108941;28;20334;-77
2024/03/15 10:47:41;;;;;;;6.10;1.60;;;;;;;12.32;100.00;100694.91;5109315;28;20055;-77
2024/03/15 10:50:17;;;;;;;7.18;2.50;;;;;;;12.32;100.00;100702.78;5109152;28;20348;-77
2024/03/15 10:52:45;;;;;;;12.00;2.85;;;;;;;12.33;100.00;100703.63;5108085;28;20120;-77
2024/03/15 10:55:18;;;;;;;26.52;2.97;;;;;;;12.34;100.00;100698.28;5108665;28;20035;-77
2024/03/15 10:57:45;;;;;;;11.82;2.28;;;;;;;12.37;100.00;100699.91;5088272;28;20047;-77
2024/03/15 11:00:18;;;;;;;18.95;2.78;;;;;;;12.39;100.00;100717.28;5108507;28;20026;-76
2024/03/15 11:03:21;;;;;;;13.00;1.88;;;;;;;12.45;100.00;100711.72;5107509;28;20323;-76
2024/03/15 11:05:47;;;;;;;15.00;3.05;;;;;;;12.54;100.00;100699.91;5103328;28;20350;-77
2024/03/15 11:08:22;;;;;;;12.85;2.30;;;;;;;12.62;100.00;100697.72;5108768;28;20103;-78
2024/03/15 11:10:55;;;;;;;11.88;2.08;;;;;;;12.68;100.00;100693.94;5109330;28;20288;-77
2024/03/15 11:13:25;;;;;;;9.35;2.35;;;;;;;12.73;100.00;100705.06;5108134;28;20055;-77
2024/03/15 11:15:52;;;;;;;13.20;2.70;;;;;;;12.74;100.00;100701.50;5107817;28;20031;-77
2024/03/15 11:18:18;;;;;;;11.73;2.85;;;;;;;12.74;100.00;100693.63;5106995;28;20046;-77
2024/03/15 11:20:49;;;;;;;5.32;2.00;;;;;;;12.76;100.00;100698.81;5107834;28;20051;-77